Time;durP1;ratioP1;P1;durP2;ratioP2;P2;SDS_P1;SDS_P2;PMS_P1;PMS_P2;Temp;Humidity;BMP_temperature;BMP_pressure;BME280_temperature;BME280_humidity;BME280_pressure;Samples;Min_cycle;Max_cycle;Signal;HPM_P1;HPM_P2
2022/10/27 00:00:13;;;;;;;;;;;;;;;11.37;94.03;101480.41;6307511;22;19963;-78
2022/10/27 00:03:18;;;;;;;;;;;;;;;11.44;93.70;101478.38;6307507;22;19956;-78
2022/10/27 00:06:21;;;;;;;;;;;;;;;11.58;92.90;101478.66;6307296;22;20329;-78
2022/10/27 00:09:24;;;;;;;;;;;;;;;11.37;92.86;101485.63;6307288;22;20354;-78
2022/10/27 00:12:29;;;;;;;;;;;;;;;11.34;92.71;101486.59;6307611;22;19918;-78
2022/10/27 00:15:32;;;;;;;;;;;;;;;11.54;91.67;101487.56;6307550;22;20376;-78
2022/10/27 00:18:35;;;;;;;;;;;;;;;11.39;91.12;101484.66;6307467;22;19913;-78
2022/10/27 00:21:39;;;;;;;;;;;;;;;11.38;91.45;101480.31;6307319;22;19913;-78
2022/10/27 00:24:42;;;;;;;;;;;;;;;11.23;92.69;101483.56;6307644;22;20300;-78
2022/10/27 00:27:46;;;;;;;;;;;;;;;11.16;93.65;101479.47;6307398;22;19914;-79
2022/10/27 00:30:56;;;;;;;;;;;;;;;11.12;93.85;101486.59;6307604;22;19917;-78
2022/10/27 00:33:59;;;;;;;;;;;;;;;11.08;94.47;101489.41;6307284;22;19913;-79
2022/10/27 00:37:02;;;;;;;;;;;;;;;11.08;94.09;101490.25;6307030;22;20342;-78
2022/10/27 00:40:06;;;;;;;;;;;;;;;11.13;93.80;101484.81;6308048;22;19956;-79
2022/10/27 00:43:23;;;;;;;;;;;;;;;11.32;93.02;101487.56;6308664;22;19913;-78
2022/10/27 00:46:30;;;;;;;;;;;;;;;11.34;92.03;101483.13;6309457;22;19914;-78
2022/10/27 00:49:46;;;;;;;;;;;;;;;11.31;91.86;101476.25;6309227;22;19964;-78
2022/10/27 00:52:52;;;;;;;;;;;;;;;11.16;91.89;101485.56;6309223;22;19952;-78
2022/10/27 00:55:57;;;;;;;;;;;;;;;11.07;92.09;101487.69;6309466;22;19914;-78
2022/10/27 00:59:00;;;;;;;;;;;;;;;11.15;92.24;101496.09;6309458;22;19913;-78
2022/10/27 01:02:05;;;;;;;;;;;;;;;11.15;92.35;101490.88;6308405;22;19913;-79
2022/10/27 01:05:09;;;;;;;;;;;;;;;11.25;91.62;101492.19;6309200;22;19914;-79
2022/10/27 01:08:13;;;;;;;;;;;;;;;11.21;91.96;101501.09;6309362;22;19914;-78
2022/10/27 01:11:16;;;;;;;;;;;;;;;11.32;91.28;101498.03;6309342;22;20338;-78
2022/10/27 01:14:19;;;;;;;;;;;;;;;11.14;91.24;101492.63;6308848;22;19914;-78
2022/10/27 01:17:22;;;;;;;;;;;;;;;11.07;91.90;101480.72;6309240;22;19914;-78
2022/10/27 01:20:32;;;;;;;;;;;;;;;11.18;91.31;101485.50;6308944;22;19960;-78
2022/10/27 01:23:42;;;;;;;;;;;;;;;11.23;90.89;101490.53;6309392;22;19918;-79
2022/10/27 01:26:45;;;;;;;;;;;;;;;11.32;90.24;101491.03;6309385;22;19953;-78
2022/10/27 01:29:49;;;;;;;;;;;;;;;11.32;89.88;101483.19;6309433;22;19918;-78
2022/10/27 01:33:01;;;;;;;;;;;;;;;11.27;90.10;101486.91;6309177;22;19974;-79
2022/10/27 01:36:11;;;;;;;;;;;;;;;11.32;89.95;101496.28;6308868;22;20206;-79
2022/10/27 01:39:18;;;;;;;;;;;;;;;11.33;90.39;101487.53;6309684;22;19930;-78
2022/10/27 01:42:26;;;;;;;;;;;;;;;11.11;91.68;101487.50;6309195;22;19913;-79
2022/10/27 01:45:31;;;;;;;;;;;;;;;10.93;93.03;101496.06;6309032;22;19968;-79
2022/10/27 01:48:35;;;;;;;;;;;;;;;11.10;93.11;101500.66;6308443;22;20317;-79
2022/10/27 01:51:38;;;;;;;;;;;;;;;11.09;92.94;101501.56;6308648;22;19918;-78
2022/10/27 01:54:41;;;;;;;;;;;;;;;10.89;93.18;101497.97;6309038;22;19914;-78
2022/10/27 01:57:51;;;;;;;;;;;;;;;10.88;93.46;101492.75;6309358;22;20238;-79
2022/10/27 02:00:55;;;;;;;;;;;;;;;10.93;93.07;101491.69;6308796;22;19960;-78
2022/10/27 02:04:00;;;;;;;;;;;;;;;10.92;93.61;101499.63;6308477;22;19952;-79
2022/10/27 02:07:06;;;;;;;;;;;;;;;10.96;93.19;101501.19;6308861;22;19976;-78
2022/10/27 02:10:16;;;;;;;;;;;;;;;10.88;92.73;101496.25;6308683;22;19914;-79
2022/10/27 02:13:19;;;;;;;;;;;;;;;11.02;91.22;101497.50;6308766;22;20396;-79
2022/10/27 02:16:26;;;;;;;;;;;;;;;11.06;90.20;101502.53;6309075;22;19913;-79
2022/10/27 02:19:34;;;;;;;;;;;;;;;11.08;89.10;101507.72;6308511;22;19914;-78
2022/10/27 02:22:38;;;;;;;;;;;;;;;11.14;88.44;101510.97;6308605;22;20338;-79
2022/10/27 02:25:47;;;;;;;;;;;;;;;11.15;88.43;101506.56;6308574;22;20008;-79
2022/10/27 02:28:56;;;;;;;;;;;;;;;11.03;89.00;101492.19;6308367;22;19914;-78
2022/10/27 02:32:03;;;;;;;;;;;;;;;11.04;89.48;101499.16;6308462;22;19921;-78
2022/10/27 02:35:07;;;;;;;;;;;;;;;11.15;88.67;101501.34;6308614;22;19942;-79
2022/10/27 02:38:11;;;;;;;;;;;;;;;11.14;89.08;101504.88;6308595;22;19996;-79
2022/10/27 02:41:14;;;;;;;;;;;;;;;11.07;88.99;101493.78;6308676;22;19913;-79
2022/10/27 02:44:18;;;;;;;;;;;;;;;11.09;89.35;101491.09;6307267;22;19991;-79
2022/10/27 02:47:22;;;;;;;;;;;;;;;11.10;89.83;101492.78;6308282;22;19914;-79
2022/10/27 02:50:25;;;;;;;;;;;;;;;10.99;90.67;101497.59;6307998;22;20337;-79
2022/10/27 02:53:29;;;;;;;;;;;;;;;11.02;91.08;101505.34;6308810;22;19968;-79
2022/10/27 02:56:32;;;;;;;;;;;;;;;11.06;91.34;101505.16;6308444;22;19989;-79
2022/10/27 02:59:35;;;;;;;;;;;;;;;10.98;91.85;101498.53;6308284;22;20033;-79
2022/10/27 03:02:39;;;;;;;;;;;;;;;10.90;92.67;101497.03;6307558;22;19989;-79
2022/10/27 03:05:42;;;;;;;;;;;;;;;10.87;91.76;101506.75;6308244;22;19914;-79
2022/10/27 03:08:46;;;;;;;;;;;;;;;10.93;90.64;101512.63;6308180;22;19960;-79
2022/10/27 03:11:50;;;;;;;;;;;;;;;10.92;90.53;101508.31;6308137;22;20048;-79
2022/10/27 03:14:53;;;;;;;;;;;;;;;10.96;90.39;101505.56;6308257;22;19913;-79
2022/10/27 03:17:57;;;;;;;;;;;;;;;10.93;90.57;101506.53;6308167;22;19914;-79
2022/10/27 03:21:00;;;;;;;;;;;;;;;10.78;90.83;101507.97;6308201;22;19960;-79
2022/10/27 03:24:04;;;;;;;;;;;;;;;10.76;91.57;101515.03;6308209;22;20349;-79
2022/10/27 03:27:07;;;;;;;;;;;;;;;11.00;90.47;101509.78;6307876;22;19913;-79
2022/10/27 03:30:12;;;;;;;;;;;;;;;10.90;91.12;101504.88;6307595;22;19973;-79
2022/10/27 03:33:15;;;;;;;;;;;;;;;10.93;90.73;101512.63;6308048;22;19953;-79
2022/10/27 03:36:18;;;;;;;;;;;;;;;10.98;90.46;101509.84;6307911;22;19918;-79
2022/10/27 03:39:22;;;;;;;;;;;;;;;10.94;90.40;101506.50;6308057;22;19936;-79
2022/10/27 03:42:25;;;;;;;;;;;;;;;11.03;90.18;101517.50;6308095;22;20330;-78
2022/10/27 03:45:29;;;;;;;;;;;;;;;10.99;90.99;101521.16;6307575;22;20242;-79
2022/10/27 03:48:33;;;;;;;;;;;;;;;10.98;91.06;101517.69;6307618;22;19928;-79
2022/10/27 03:51:37;;;;;;;;;;;;;;;11.06;90.81;101522.63;6307723;22;19932;-79
2022/10/27 03:54:40;;;;;;;;;;;;;;;11.10;90.97;101516.34;6308194;22;19914;-79
2022/10/27 03:57:43;;;;;;;;;;;;;;;11.14;90.99;101510.09;6307730;22;19933;-78
2022/10/27 04:00:46;;;;;;;;;;;;;;;11.17;91.34;101510.00;6307495;22;19962;-79
2022/10/27 04:03:51;;;;;;;;;;;;;;;11.04;91.85;101513.97;6307617;22;19929;-79
2022/10/27 04:06:56;;;;;;;;;;;;;;;11.06;92.17;101517.38;6307801;22;19914;-78
2022/10/27 04:10:00;;;;;;;;;;;;;;;11.08;92.44;101520.81;6309494;22;19917;-79
2022/10/27 04:13:03;;;;;;;;;;;;;;;11.09;92.39;101517.28;6307885;22;19914;-79
2022/10/27 04:16:07;;;;;;;;;;;;;;;11.09;92.37;101528.59;6307830;22;19913;-79
2022/10/27 04:19:10;;;;;;;;;;;;;;;11.03;92.58;101523.59;6307691;22;19963;-79
2022/10/27 04:22:15;;;;;;;;;;;;;;;11.00;93.03;101517.63;6307667;22;19957;-78
2022/10/27 04:25:18;;;;;;;;;;;;;;;11.02;93.42;101516.66;6307743;22;19917;-79
2022/10/27 04:28:23;;;;;;;;;;;;;;;11.06;93.69;101527.84;6307299;22;19913;-78
2022/10/27 04:31:27;;;;;;;;;;;;;;;10.94;94.84;101530.06;6307495;22;19957;-78
2022/10/27 04:34:30;;;;;;;;;;;;;;;10.88;95.36;101525.03;6307428;22;19961;-79
2022/10/27 04:37:34;;;;;;;;;;;;;;;10.79;96.10;101530.63;6307834;22;19914;-79
2022/10/27 04:40:37;;;;;;;;;;;;;;;10.97;95.43;101523.81;6307129;22;19937;-79
2022/10/27 04:43:40;;;;;;;;;;;;;;;10.97;95.58;101521.19;6307201;22;19913;-79
2022/10/27 04:46:43;;;;;;;;;;;;;;;10.97;95.93;101522.97;6307501;22;19914;-79
2022/10/27 04:49:47;;;;;;;;;;;;;;;10.93;96.06;101517.00;6307054;22;19941;-79
2022/10/27 04:52:58;;;;;;;;;;;;;;;10.96;96.42;101513.44;6307170;22;19914;-78
2022/10/27 04:56:02;;;;;;;;;;;;;;;10.90;96.14;101507.50;6307275;22;20270;-79
2022/10/27 04:59:05;;;;;;;;;;;;;;;10.92;95.97;101500.47;6307077;22;19953;-79
2022/10/27 05:02:08;;;;;;;;;;;;;;;11.04;94.74;101498.25;6307581;22;19916;-79
2022/10/27 05:05:11;;;;;;;;;;;;;;;10.94;94.93;101503.88;6307233;22;19930;-79
2022/10/27 05:08:16;;;;;;;;;;;;;;;11.06;94.38;101512.16;6307491;22;19953;-78
2022/10/27 05:11:19;;;;;;;;;;;;;;;11.07;94.29;101506.00;6307195;22;19918;-78
2022/10/27 05:14:23;;;;;;;;;;;;;;;11.06;94.23;101512.16;6307399;22;19913;-79
2022/10/27 05:17:26;;;;;;;;;;;;;;;11.10;94.38;101503.25;6308245;22;20296;-78
2022/10/27 05:20:30;;;;;;;;;;;;;;;11.11;93.65;101503.22;6307103;22;19914;-79
2022/10/27 05:23:35;;;;;;;;;;;;;;;11.10;94.27;101498.91;6307017;22;19913;-79
2022/10/27 05:26:38;;;;;;;;;;;;;;;11.09;94.21;101497.19;6307862;22;19914;-79
2022/10/27 05:29:42;;;;;;;;;;;;;;;11.02;95.01;101500.97;6290197;22;19918;-79
2022/10/27 05:32:45;;;;;;;;;;;;;;;11.15;94.66;101496.09;6309131;22;19956;-79
2022/10/27 05:35:49;;;;;;;;;;;;;;;11.10;94.40;101495.41;6308968;22;19913;-79
2022/10/27 05:38:53;;;;;;;;;;;;;;;11.04;95.27;101506.13;6308901;22;19961;-79
2022/10/27 05:41:56;;;;;;;;;;;;;;;10.87;95.48;101506.75;6308883;22;19962;-79
2022/10/27 05:44:59;;;;;;;;;;;;;;;10.95;95.36;101499.50;6309062;22;19953;-79
2022/10/27 05:48:05;;;;;;;;;;;;;;;11.03;95.47;101501.81;6290543;22;20388;-79
2022/10/27 05:51:09;;;;;;;;;;;;;;;10.94;95.11;101498.66;6308099;22;19961;-78
2022/10/27 05:54:13;;;;;;;;;;;;;;;11.16;93.88;101492.56;6308699;22;20330;-79
2022/10/27 05:57:16;;;;;;;;;;;;;;;11.16;93.78;101487.31;6308687;22;19913;-79
2022/10/27 06:00:21;;;;;;;;;;;;;;;11.06;94.21;101496.44;6308405;22;19913;-78
2022/10/27 06:03:24;;;;;;;;;;;;;;;11.09;93.76;101505.03;6308695;22;19914;-79
2022/10/27 06:06:28;;;;;;;;;;;;;;;11.01;93.77;101506.22;6308161;22;19921;-78
2022/10/27 06:09:33;;;;;;;;;;;;;;;11.08;93.53;101508.56;6308204;22;19937;-79
2022/10/27 06:12:36;;;;;;;;;;;;;;;11.22;92.96;101502.78;6290212;22;19918;-80
2022/10/27 06:15:40;;;;;;;;;;;;;;;11.12;93.50;101502.31;6308912;22;19914;-79
2022/10/27 06:18:43;;;;;;;;;;;;;;;11.28;93.35;101510.41;6308218;22;19957;-80
2022/10/27 06:21:46;;;;;;;;;;;;;;;11.45;92.15;101509.72;6308490;22;19956;-79
2022/10/27 06:24:50;;;;;;;;;;;;;;;11.38;92.01;101522.22;6308458;22;19914;-80
2022/10/27 06:27:53;;;;;;;;;;;;;;;11.22;91.63;101531.59;6308634;22;19914;-79
2022/10/27 06:30:57;;;;;;;;;;;;;;;11.17;92.41;101525.69;6308598;22;19976;-80
2022/10/27 06:34:01;;;;;;;;;;;;;;;11.06;92.80;101527.84;6308636;22;19914;-79
2022/10/27 06:37:04;;;;;;;;;;;;;;;11.04;93.02;101525.31;6307979;22;19913;-80
2022/10/27 06:40:07;;;;;;;;;;;;;;;11.08;93.21;101518.19;6308442;22;19991;-80
2022/10/27 06:43:11;;;;;;;;;;;;;;;10.94;93.92;101522.19;6308796;22;19913;-80
2022/10/27 06:46:15;;;;;;;;;;;;;;;10.98;93.50;101519.47;6308677;22;19990;-80
2022/10/27 06:49:19;;;;;;;;;;;;;;;10.60;96.04;101530.44;6308096;22;19933;-78
2022/10/27 06:52:22;;;;;;;;;;;;;;;10.37;98.64;101533.88;6308297;22;19967;-79
2022/10/27 06:55:26;;;;;;;;;;;;;;;10.43;99.37;101528.44;6308220;22;19914;-79
2022/10/27 06:58:29;;;;;;;;;;;;;;;10.70;97.38;101531.81;6308494;22;19953;-79
2022/10/27 07:01:33;;;;;;;;;;;;;;;10.77;96.27;101540.28;6308389;22;20052;-79
2022/10/27 07:04:36;;;;;;;;;;;;;;;10.91;95.08;101530.16;6307944;22;19913;-80
2022/10/27 07:07:44;;;;;;;;;;;;;;;10.88;94.93;101540.75;6307769;22;19914;-79
2022/10/27 07:10:48;;;;;;;;;;;;;;;10.93;94.61;101549.25;6289195;22;19964;-79
2022/10/27 07:13:51;;;;;;;;;;;;;;;10.89;93.95;101541.59;6308190;22;20253;-80
2022/10/27 07:16:57;;;;;;;;;;;;;;;11.02;93.48;101541.97;6308313;22;20337;-79
2022/10/27 07:20:01;;;;;;;;;;;;;;;11.08;93.33;101547.84;6307647;22;19913;-79
2022/10/27 07:23:05;;;;;;;;;;;;;;;11.14;93.46;101546.75;6307686;22;19957;-80
2022/10/27 07:26:09;;;;;;;;;;;;;;;11.07;93.05;101542.63;6308215;22;19965;-79
2022/10/27 07:29:13;;;;;;;;;;;;;;;11.18;92.57;101537.88;6308123;22;19918;-79
2022/10/27 07:32:17;;;;;;;;;;;;;;;11.18;93.01;101538.72;6308163;22;19915;-78
2022/10/27 07:35:20;;;;;;;;;;;;;;;11.22;92.05;101543.81;6307738;22;19929;-79
2022/10/27 07:38:23;;;;;;;;;;;;;;;11.21;91.98;101558.69;6307600;22;20381;-79
2022/10/27 07:41:27;;;;;;;;;;;;;;;11.21;92.42;101553.44;6307917;22;19914;-79
2022/10/27 07:44:31;;;;;;;;;;;;;;;11.28;92.27;101548.84;6307863;22;19953;-79
2022/10/27 07:47:34;;;;;;;;;;;;;;;11.13;93.63;101552.88;6307748;22;19960;-79
2022/10/27 07:50:37;;;;;;;;;;;;;;;11.12;93.91;101546.78;6299631;22;19921;-79
2022/10/27 07:53:41;;;;;;;;;;;;;;;11.00;94.58;101549.03;6307853;22;19936;-78
2022/10/27 07:56:47;;;;;;;;;;;;;;;11.16;94.36;101550.16;6307591;22;20397;-78
2022/10/27 07:59:49;;;;;;;;;;;;;;;11.26;93.98;101556.72;6307737;22;19913;-78
2022/10/27 08:02:53;;;;;;;;;;;;;;;11.27;93.66;101558.47;6307676;22;19914;-78
2022/10/27 08:06:01;;;;;;;;;;;;;;;11.28;93.84;101554.06;6307172;22;20318;-78
2022/10/27 08:09:05;;;;;;;;;;;;;;;11.35;93.83;101545.91;6307483;22;19917;-79
2022/10/27 08:12:08;;;;;;;;;;;;;;;11.36;93.41;101547.63;6307443;22;19941;-79
2022/10/27 08:15:11;;;;;;;;;;;;;;;11.35;93.29;101543.28;6307584;22;20392;-79
2022/10/27 08:18:15;;;;;;;;;;;;;;;11.33;92.51;101547.75;6306339;22;19928;-79
2022/10/27 08:21:18;;;;;;;;;;;;;;;11.34;92.28;101538.13;6307093;22;19982;-78
2022/10/27 08:24:22;;;;;;;;;;;;;;;11.47;91.31;101538.50;6307342;22;19953;-79
2022/10/27 08:27:26;;;;;;;;;;;;;;;11.35;92.05;101534.56;6307761;22;19913;-79
2022/10/27 08:30:31;;;;;;;;;;;;;;;11.47;92.07;101541.09;6305967;22;20242;-79
2022/10/27 08:33:34;;;;;;;;;;;;;;;11.43;92.58;101536.91;6305535;22;19934;-79
2022/10/27 08:36:40;;;;;;;;;;;;;;;11.46;92.56;101537.63;6306786;22;19972;-79
2022/10/27 08:39:43;;;;;;;;;;;;;;;11.50;92.84;101541.00;6306883;22;20341;-79
2022/10/27 08:42:58;;;;;;;;;;;;;;;11.35;92.35;101535.44;6307249;22;19953;-79
2022/10/27 08:46:05;;;;;;;;;;;;;;;11.49;92.79;101531.44;6305582;22;20374;-79
2022/10/27 08:49:18;;;;;;;;;;;;;;;11.57;92.12;101537.19;6306873;22;19937;-79
2022/10/27 08:52:22;;;;;;;;;;;;;;;11.63;90.83;101539.56;6305853;22;20037;-79
2022/10/27 08:55:27;;;;;;;;;;;;;;;11.64;91.53;101538.66;6307150;22;19952;-79
2022/10/27 08:58:35;;;;;;;;;;;;;;;11.59;91.32;101538.00;6307044;22;19913;-78
2022/10/27 09:01:55;;;;;;;;;;;;;;;11.49;92.64;101539.28;6307728;22;20381;-79
2022/10/27 09:05:17;;;;;;;;;;;;;;;11.41;92.92;101534.34;6308941;22;19914;-79
2022/10/27 09:08:25;;;;;;;;;;;;;;;11.64;91.16;101539.50;6308842;22;19914;-79
2022/10/27 09:11:34;;;;;;;;;;;;;;;11.75;90.48;101536.47;6309252;22;19961;-79
2022/10/27 09:14:45;;;;;;;;;;;;;;;11.67;92.18;101535.06;6308721;22;19926;-79
2022/10/27 09:17:55;;;;;;;;;;;;;;;11.63;91.43;101534.34;6308892;22;19913;-79
2022/10/27 09:21:02;;;;;;;;;;;;;;;11.44;91.84;101530.75;6308854;22;19928;-79
2022/10/27 09:24:16;;;;;;;;;;;;;;;11.51;92.48;101534.81;6307976;22;19913;-78
2022/10/27 09:27:19;;;;;;;;;;;;;;;11.70;91.90;101530.53;6309877;22;19964;-79
2022/10/27 09:30:23;;;;;;;;;;;;;;;11.77;90.92;101526.78;6308384;22;19968;-79
2022/10/27 09:33:27;;;;;;;;;;;;;;;11.88;90.93;101510.63;6308012;22;19990;-79
2022/10/27 09:36:31;;;;;;;;;;;;;;;11.83;90.63;101509.94;6309124;22;19913;-79
2022/10/27 09:39:34;;;;;;;;;;;;;;;11.93;91.00;101508.66;6308812;22;19913;-78
2022/10/27 09:42:39;;;;;;;;;;;;;;;11.83;91.34;101510.78;6309067;22;19914;-78
2022/10/27 09:45:43;;;;;;;;;;;;;;;11.98;91.36;101519.81;6305726;22;19961;-79
2022/10/27 09:48:47;;;;;;;;;;;;;;;11.97;91.05;101514.66;6301591;22;19941;-79
2022/10/27 09:51:57;;;;;;;;;;;;;;;12.05;91.10;101515.16;6302393;22;19971;-78
2022/10/27 09:55:00;;;;;;;;;;;;;;;12.09;90.56;101511.47;6304925;22;19933;-79
2022/10/27 09:58:04;;;;;;;;;;;;;;;12.23;90.90;101509.13;6307894;22;19914;-78
2022/10/27 10:01:09;;;;;;;;;;;;;;;12.40;90.04;101511.00;6310553;22;20056;-78
2022/10/27 10:04:24;;;;;;;;;;;;;;;12.33;89.93;101507.81;6310279;22;19917;-78
2022/10/27 10:07:29;;;;;;;;;;;;;;;12.25;90.47;101502.06;6308212;22;20348;-77
2022/10/27 10:10:32;;;;;;;;;;;;;;;12.41;90.42;101493.50;6310969;22;19914;-78
2022/10/27 10:13:40;;;;;;;;;;;;;;;12.32;90.59;101487.75;6307655;22;19922;-78
2022/10/27 10:16:44;;;;;;;;;;;;;;;12.37;90.20;101489.31;6306240;22;20081;-79
2022/10/27 10:19:48;;;;;;;;;;;;;;;12.39;90.76;101484.84;6303961;22;19926;-79
2022/10/27 10:22:51;;;;;;;;;;;;;;;12.50;90.29;101480.81;6304576;22;19918;-79
2022/10/27 10:25:56;;;;;;;;;;;;;;;12.61;90.64;101480.34;6304940;22;19997;-78
2022/10/27 10:29:05;;;;;;;;;;;;;;;12.64;90.59;101488.06;6309250;22;19957;-78
2022/10/27 10:32:12;;;;;;;;;;;;;;;12.62;90.46;101484.66;6309641;22;19950;-78
2022/10/27 10:35:34;;;;;;;;;;;;;;;12.59;89.98;101483.94;6306861;22;20272;-78
2022/10/27 10:38:40;;;;;;;;;;;;;;;12.52;90.88;101478.13;6307275;22;20249;-78
2022/10/27 10:41:43;;;;;;;;;;;;;;;12.59;90.68;101471.69;6307988;22;19917;-79
2022/10/27 10:45:07;;;;;;;;;;;;;;;12.57;90.76;101471.75;6306304;22;19914;-78
2022/10/27 10:48:14;;;;;;;;;;;;;;;12.85;89.86;101459.13;6306178;22;20333;-78
2022/10/27 10:51:30;;;;;;;;;;;;;;;12.81;89.89;101463.69;6303651;22;19988;-78
2022/10/27 10:54:39;;;;;;;;;;;;;;;12.87;89.82;101452.88;6303929;22;19959;-79
2022/10/27 10:57:47;;;;;;;;;;;;;;;12.93;89.77;101447.34;6302351;22;19997;-78
2022/10/27 11:00:55;;;;;;;;;;;;;;;12.92;89.93;101442.16;6302357;22;19918;-78
2022/10/27 11:03:58;;;;;;;;;;;;;;;13.14;89.23;101445.47;6304320;22;20719;-79
2022/10/27 11:07:20;;;;;;;;;;;;;;;13.16;87.68;101433.13;6303439;22;19932;-79
2022/10/27 11:10:26;;;;;;;;;;;;;;;13.02;90.50;101430.31;6306403;22;19918;-77
2022/10/27 11:13:59;;;;;;;;;;;;;;;12.76;92.59;101435.03;6304987;22;19933;-78
2022/10/27 11:17:03;;;;;;;;;;;;;;;12.63;92.94;101428.63;6305955;22;20107;-78
2022/10/27 11:20:12;;;;;;;;;;;;;;;12.83;92.28;101425.09;6306031;22;20270;-78
2022/10/27 11:23:26;;;;;;;;;;;;;;;12.80;92.82;101418.22;6306747;22;19914;-78
2022/10/27 11:26:33;;;;;;;;;;;;;;;12.87;92.74;101416.16;6306573;22;19981;-78
2022/10/27 11:29:42;;;;;;;;;;;;;;;13.02;93.37;101414.56;6307160;22;19917;-78
2022/10/27 11:33:04;;;;;;;;;;;;;;;13.14;92.44;101403.44;6307084;22;19914;-78
2022/10/27 11:36:07;;;;;;;;;;;;;;;13.16;91.72;101400.75;6306733;22;19914;-77
2022/10/27 11:39:20;;;;;;;;;;;;;;;13.31;92.00;101397.41;6307480;22;19929;-78
2022/10/27 11:42:28;;;;;;;;;;;;;;;13.26;92.90;101397.63;6307645;22;20269;-78
2022/10/27 11:45:39;;;;;;;;;;;;;;;13.42;93.24;101391.63;6306080;22;19913;-77
2022/10/27 11:48:54;;;;;;;;;;;;;;;13.47;93.94;101394.88;6305390;22;19921;-78
2022/10/27 11:52:16;;;;;;;;;;;;;;;13.57;93.78;101395.25;6307057;22;19999;-78
2022/10/27 11:55:23;;;;;;;;;;;;;;;13.48;92.87;101391.31;6306499;22;19993;-78
2022/10/27 11:58:29;;;;;;;;;;;;;;;13.72;92.57;101383.97;6305930;22;19913;-78
2022/10/27 12:01:47;;;;;;;;;;;;;;;13.91;91.70;101383.81;6306229;22;19913;-79
2022/10/27 12:05:06;;;;;;;;;;;;;;;14.06;90.31;101375.13;6306910;22;19975;-78
2022/10/27 12:08:09;;;;;;;;;;;;;;;14.14;91.26;101372.94;6306818;22;19913;-78
2022/10/27 12:11:13;;;;;;;;;;;;;;;14.14;91.21;101374.75;6306369;22;20357;-78
2022/10/27 12:14:25;;;;;;;;;;;;;;;14.13;91.56;101376.50;6305714;22;19914;-78
2022/10/27 12:17:36;;;;;;;;;;;;;;;14.26;90.94;101371.41;6306182;22;19913;-78
2022/10/27 12:20:56;;;;;;;;;;;;;;;14.31;90.88;101365.94;6306913;22;19929;-79
2022/10/27 12:24:17;;;;;;;;;;;;;;;14.55;90.28;101353.22;6306349;22;19914;-79
2022/10/27 12:27:20;;;;;;;;;;;;;;;14.51;90.63;101360.44;6306853;22;19922;-79
2022/10/27 12:30:25;;;;;;;;;;;;;;;14.49;90.89;101348.28;6307336;22;20005;-79
2022/10/27 12:33:33;;;;;;;;;;;;;;;14.68;90.57;101346.38;6306743;22;19921;-79
2022/10/27 12:36:36;;;;;;;;;;;;;;;14.71;89.66;101342.69;6306902;22;19914;-79
2022/10/27 12:39:53;;;;;;;;;;;;;;;14.76;90.31;101346.75;6306961;22;19954;-79
2022/10/27 12:43:00;;;;;;;;;;;;;;;14.65;91.31;101339.47;6306687;22;19967;-78
2022/10/27 12:46:07;;;;;;;;;;;;;;;14.77;90.68;101337.06;6308441;22;19951;-79
2022/10/27 12:49:17;;;;;;;;;;;;;;;14.81;91.79;101330.72;6307311;22;19937;-79
2022/10/27 12:52:25;;;;;;;;;;;;;;;14.90;91.45;101330.19;6307319;22;19965;-79
2022/10/27 12:55:30;;;;;;;;;;;;;;;15.07;90.29;101334.47;6307027;22;20327;-79
2022/10/27 12:58:46;;;;;;;;;;;;;;;15.09;90.43;101322.91;6306601;22;19979;-79
2022/10/27 13:01:56;;;;;;;;;;;;;;;15.17;90.03;101318.97;6308000;22;19915;-79
2022/10/27 13:05:11;;;;;;;;;;;;;;;15.26;90.07;101307.91;6288169;22;19996;-78
2022/10/27 13:08:32;;;;;;;;;;;;;;;15.32;90.84;101304.91;6307459;22;19977;-79
2022/10/27 13:11:40;;;;;;;;;;;;;;;15.40;90.02;101300.00;6307228;22;19921;-79
2022/10/27 13:15:02;;;;;;;;;;;;;;;15.36;90.86;101290.59;6308043;22;20533;-79
2022/10/27 13:18:24;;;;;;;;;;;;;;;15.41;91.46;101283.28;6288478;22;19913;-79
2022/10/27 13:21:36;;;;;;;;;;;;;;;15.47;90.18;101280.25;6288244;22;20299;-79
2022/10/27 13:24:44;;;;;;;;;;;;;;;15.42;91.74;101270.94;6306924;22;19913;-79
2022/10/27 13:28:03;;;;;;;;;;;;;;;15.49;90.78;101273.09;6306898;22;19988;-79
2022/10/27 13:31:17;;;;;;;;;;;;;;;15.53;90.09;101274.59;6307019;22;20009;-79
2022/10/27 13:34:20;;;;;;;;;;;;;;;15.57;89.28;101281.41;6306536;22;19964;-79
2022/10/27 13:37:36;;;;;;;;;;;;;;;15.58;89.63;101269.91;6286605;22;19961;-79
2022/10/27 13:40:39;;;;;;;;;;;;;;;15.61;89.14;101271.50;6286535;22;19913;-79
2022/10/27 13:43:43;;;;;;;;;;;;;;;15.52;90.24;101267.63;6306325;22;19913;-78
2022/10/27 13:47:02;;;;;;;;;;;;;;;15.48;90.33;101271.41;6306903;22;19914;-79
2022/10/27 13:50:26;;;;;;;;;;;;;;;15.51;90.75;101268.59;6306966;22;19917;-79
2022/10/27 13:53:30;;;;;;;;;;;;;;;15.54;90.30;101263.13;6308237;22;19952;-78
2022/10/27 13:56:37;;;;;;;;;;;;;;;15.55;90.62;101258.69;6308335;22;19914;-79
2022/10/27 13:59:43;;;;;;;;;;;;;;;15.59;90.80;101257.56;6308152;22;19930;-78
2022/10/27 14:02:51;;;;;;;;;;;;;;;15.56;90.91;101258.59;6289383;22;20107;-78
2022/10/27 14:05:55;;;;;;;;;;;;;;;15.59;91.14;101253.13;6308583;22;20037;-78
2022/10/27 14:09:17;;;;;;;;;;;;;;;15.63;90.87;101255.59;6308294;22;19967;-78
2022/10/27 14:12:39;;;;;;;;;;;;;;;15.64;90.99;101257.31;6289473;22;19961;-78
2022/10/27 14:15:45;;;;;;;;;;;;;;;15.58;91.17;101258.50;6309248;22;19996;-77
2022/10/27 14:19:19;;;;;;;;;;;;;;;15.57;92.04;101254.16;6308003;22;20353;-78
2022/10/27 14:22:29;;;;;;;;;;;;;;;15.55;92.96;101256.91;6308475;22;19914;-79
2022/10/27 14:25:32;;;;;;;;;;;;;;;15.57;93.53;101254.16;6292296;22;19914;-78
2022/10/27 14:28:36;;;;;;;;;;;;;;;15.62;92.96;101251.25;6309472;22;19984;-79
2022/10/27 14:31:40;;;;;;;;;;;;;;;15.58;93.20;101255.88;6290456;22;19986;-79
2022/10/27 14:34:44;;;;;;;;;;;;;;;15.62;93.47;101261.81;6309523;22;19913;-79
2022/10/27 14:37:49;;;;;;;;;;;;;;;15.61;92.88;101260.13;6308928;22;19917;-78
2022/10/27 14:40:53;;;;;;;;;;;;;;;15.62;93.47;101257.38;6308058;22;19914;-79
2022/10/27 14:44:00;;;;;;;;;;;;;;;15.57;94.56;101249.75;6307546;22;20250;-78
2022/10/27 14:47:10;;;;;;;;;;;;;;;15.55;95.14;101249.00;6301864;22;19913;-78
2022/10/27 15:13:26;;;;;;;13.40;3.42;;;;;;;15.23;98.88;101250.97;6218060;22;1856594;-79
2022/10/27 15:16:32;;;;;;;17.95;3.08;;;;;;;15.23;99.00;101253.59;6249381;23;20506;-79
2022/10/27 15:19:36;;;;;;;13.63;3.22;;;;;;;15.24;98.95;101252.66;6250138;23;20467;-79
2022/10/27 15:22:40;;;;;;;12.70;3.17;;;;;;;15.28;99.43;101253.31;6250007;23;20099;-79
2022/10/27 15:25:46;;;;;;;12.30;3.78;;;;;;;15.26;99.75;101242.03;6249915;23;20213;-79
2022/10/27 15:28:56;;;;;;;15.95;3.00;;;;;;;15.25;99.97;101258.75;6249436;23;20279;-79
2022/10/27 15:32:04;;;;;;;9.60;2.85;;;;;;;15.22;99.39;101267.72;6250857;23;20070;-79
2022/10/27 15:35:32;;;;;;;10.35;3.45;;;;;;;15.23;100.00;101265.94;6249101;23;20027;-79
2022/10/27 15:38:36;;;;;;;18.33;3.08;;;;;;;15.16;100.00;101259.34;6249862;23;20077;-79
2022/10/27 15:41:53;;;;;;;12.00;3.17;;;;;;;15.04;100.00;101261.75;6248520;23;20051;-79
2022/10/27 15:45:41;;;;;;;30.60;4.97;;;;;;;15.05;100.00;101262.59;6246941;23;20483;-79
2022/10/27 15:49:15;;;;;;;12.45;3.20;;;;;;;15.05;100.00;101263.44;6246449;23;20547;-79
2022/10/27 15:52:27;;;;;;;13.63;3.13;;;;;;;15.12;100.00;101258.66;6246020;23;20139;-79
2022/10/27 15:55:36;;;;;;;15.38;3.15;;;;;;;15.08;100.00;101267.69;6220563;23;20108;-79
2022/10/27 15:58:41;;;;;;;12.07;3.80;;;;;;;14.99;100.00;101263.78;6217451;23;20095;-79
2022/10/27 16:01:49;;;;;;;14.30;3.70;;;;;;;14.96;100.00;101265.75;6218323;23;20052;-79
2022/10/27 16:04:54;;;;;;;23.52;3.45;;;;;;;14.91;100.00;101260.78;6216407;23;20461;-78
2022/10/27 16:23:43;;;;;;;16.27;4.40;;;;;;;14.99;100.00;101266.44;6180527;23;20028;-79
2022/10/27 16:26:51;;;;;;;16.25;4.15;;;;;;;14.81;100.00;101265.75;6179997;23;20400;-79
2022/10/27 16:30:01;;;;;;;16.38;3.63;;;;;;;14.78;100.00;101275.59;6161981;23;20027;-79